sensor_id;sensor_type;location;lat;lon;timestamp;P1;durP1;ratioP1;P2;durP2;ratioP2
12267;SDS011;6196;48.398;11.736;2022-07-22T00:00:24;22.33;;;20.23;;
12267;SDS011;6196;48.398;11.736;2022-07-22T00:02:51;22.20;;;20.00;;
12267;SDS011;6196;48.398;11.736;2022-07-22T00:05:18;23.10;;;20.90;;
12267;SDS011;6196;48.398;11.736;2022-07-22T00:07:45;23.80;;;21.60;;
12267;SDS011;6196;48.398;11.736;2022-07-22T00:10:11;22.20;;;20.00;;
12267;SDS011;6196;48.398;11.736;2022-07-22T00:12:39;22.83;;;20.63;;
12267;SDS011;6196;48.398;11.736;2022-07-22T00:15:06;22.20;;;20.03;;
12267;SDS011;6196;48.398;11.736;2022-07-22T00:17:35;25.20;;;22.70;;
12267;SDS011;6196;48.398;11.736;2022-07-22T00:20:05;22.17;;;20.03;;
12267;SDS011;6196;48.398;11.736;2022-07-22T00:22:33;23.23;;;20.93;;
12267;SDS011;6196;48.398;11.736;2022-07-22T00:25:00;22.07;;;19.97;;
12267;SDS011;6196;48.398;11.736;2022-07-22T00:27:27;22.47;;;20.27;;
12267;SDS011;6196;48.398;11.736;2022-07-22T00:29:54;22.07;;;19.90;;
12267;SDS011;6196;48.398;11.736;2022-07-22T00:32:21;21.60;;;19.40;;
12267;SDS011;6196;48.398;11.736;2022-07-22T00:34:48;21.40;;;19.33;;
12267;SDS011;6196;48.398;11.736;2022-07-22T00:37:15;19.23;;;17.53;;
12267;SDS011;6196;48.398;11.736;2022-07-22T00:39:41;21.07;;;19.10;;
12267;SDS011;6196;48.398;11.736;2022-07-22T00:42:08;18.90;;;17.00;;
12267;SDS011;6196;48.398;11.736;2022-07-22T00:44:35;21.20;;;19.13;;
12267;SDS011;6196;48.398;11.736;2022-07-22T00:47:03;21.40;;;19.40;;
12267;SDS011;6196;48.398;11.736;2022-07-22T00:49:30;21.27;;;19.13;;
12267;SDS011;6196;48.398;11.736;2022-07-22T00:51:57;20.43;;;18.43;;
12267;SDS011;6196;48.398;11.736;2022-07-22T00:54:25;21.70;;;19.70;;
12267;SDS011;6196;48.398;11.736;2022-07-22T00:56:52;21.60;;;19.37;;
12267;SDS011;6196;48.398;11.736;2022-07-22T00:59:19;22.37;;;20.17;;
12267;SDS011;6196;48.398;11.736;2022-07-22T01:01:45;20.70;;;18.80;;
12267;SDS011;6196;48.398;11.736;2022-07-22T01:04:13;21.07;;;19.13;;
12267;SDS011;6196;48.398;11.736;2022-07-22T01:06:40;23.33;;;20.97;;
12267;SDS011;6196;48.398;11.736;2022-07-22T01:09:11;21.47;;;19.37;;
12267;SDS011;6196;48.398;11.736;2022-07-22T01:11:40;22.00;;;20.00;;
12267;SDS011;6196;48.398;11.736;2022-07-22T01:14:07;21.17;;;19.17;;
12267;SDS011;6196;48.398;11.736;2022-07-22T01:16:34;20.77;;;18.87;;
12267;SDS011;6196;48.398;11.736;2022-07-22T01:19:02;21.13;;;19.03;;
12267;SDS011;6196;48.398;11.736;2022-07-22T01:21:30;19.97;;;18.00;;
12267;SDS011;6196;48.398;11.736;2022-07-22T01:23:58;20.33;;;18.33;;
12267;SDS011;6196;48.398;11.736;2022-07-22T01:26:25;20.40;;;18.37;;
12267;SDS011;6196;48.398;11.736;2022-07-22T01:28:53;20.23;;;18.37;;
12267;SDS011;6196;48.398;11.736;2022-07-22T01:31:20;20.50;;;18.60;;
12267;SDS011;6196;48.398;11.736;2022-07-22T01:33:47;19.90;;;17.93;;
12267;SDS011;6196;48.398;11.736;2022-07-22T01:36:15;20.73;;;18.50;;
12267;SDS011;6196;48.398;11.736;2022-07-22T01:38:42;19.63;;;17.63;;
12267;SDS011;6196;48.398;11.736;2022-07-22T01:41:09;19.13;;;17.23;;
12267;SDS011;6196;48.398;11.736;2022-07-22T01:43:36;19.40;;;17.70;;
12267;SDS011;6196;48.398;11.736;2022-07-22T01:46:03;20.47;;;18.63;;
12267;SDS011;6196;48.398;11.736;2022-07-22T01:48:31;19.77;;;17.97;;
12267;SDS011;6196;48.398;11.736;2022-07-22T01:50:59;16.27;;;14.83;;
12267;SDS011;6196;48.398;11.736;2022-07-22T01:53:26;16.90;;;15.30;;
12267;SDS011;6196;48.398;11.736;2022-07-22T01:55:53;16.80;;;15.37;;
12267;SDS011;6196;48.398;11.736;2022-07-22T01:58:20;18.40;;;16.60;;
12267;SDS011;6196;48.398;11.736;2022-07-22T02:00:47;17.73;;;16.13;;
12267;SDS011;6196;48.398;11.736;2022-07-22T02:03:14;20.27;;;18.33;;
12267;SDS011;6196;48.398;11.736;2022-07-22T02:05:41;20.37;;;18.60;;
12267;SDS011;6196;48.398;11.736;2022-07-22T02:08:09;21.57;;;19.57;;
12267;SDS011;6196;48.398;11.736;2022-07-22T02:10:37;21.37;;;19.27;;
12267;SDS011;6196;48.398;11.736;2022-07-22T02:13:04;21.33;;;19.23;;
12267;SDS011;6196;48.398;11.736;2022-07-22T02:15:31;20.17;;;18.27;;
12267;SDS011;6196;48.398;11.736;2022-07-22T02:17:59;20.00;;;18.17;;
12267;SDS011;6196;48.398;11.736;2022-07-22T02:20:26;20.57;;;18.50;;
12267;SDS011;6196;48.398;11.736;2022-07-22T02:22:53;19.37;;;17.67;;
12267;SDS011;6196;48.398;11.736;2022-07-22T02:25:20;20.40;;;18.30;;
12267;SDS011;6196;48.398;11.736;2022-07-22T02:27:46;19.73;;;17.87;;
12267;SDS011;6196;48.398;11.736;2022-07-22T02:30:13;20.97;;;19.00;;
12267;SDS011;6196;48.398;11.736;2022-07-22T02:32:40;20.87;;;18.77;;
12267;SDS011;6196;48.398;11.736;2022-07-22T02:35:07;20.90;;;18.90;;
12267;SDS011;6196;48.398;11.736;2022-07-22T02:37:34;20.57;;;18.60;;
12267;SDS011;6196;48.398;11.736;2022-07-22T02:40:06;20.93;;;19.00;;
12267;SDS011;6196;48.398;11.736;2022-07-22T02:42:34;20.47;;;18.40;;
12267;SDS011;6196;48.398;11.736;2022-07-22T02:45:02;20.93;;;18.83;;
12267;SDS011;6196;48.398;11.736;2022-07-22T02:47:30;19.27;;;17.57;;
12267;SDS011;6196;48.398;11.736;2022-07-22T02:49:57;20.93;;;18.93;;
12267;SDS011;6196;48.398;11.736;2022-07-22T02:52:24;20.43;;;18.53;;
12267;SDS011;6196;48.398;11.736;2022-07-22T02:54:51;21.53;;;19.43;;
12267;SDS011;6196;48.398;11.736;2022-07-22T02:57:18;21.70;;;19.60;;
12267;SDS011;6196;48.398;11.736;2022-07-22T02:59:45;20.83;;;18.93;;
12267;SDS011;6196;48.398;11.736;2022-07-22T03:02:11;21.20;;;19.13;;
12267;SDS011;6196;48.398;11.736;2022-07-22T03:04:38;20.90;;;19.00;;
12267;SDS011;6196;48.398;11.736;2022-07-22T03:07:05;20.10;;;18.20;;
12267;SDS011;6196;48.398;11.736;2022-07-22T03:09:32;21.57;;;19.57;;
12267;SDS011;6196;48.398;11.736;2022-07-22T03:11:59;17.50;;;15.90;;
12267;SDS011;6196;48.398;11.736;2022-07-22T03:14:26;16.40;;;14.90;;
12267;SDS011;6196;48.398;11.736;2022-07-22T03:16:53;16.30;;;14.77;;
12267;SDS011;6196;48.398;11.736;2022-07-22T03:19:20;15.67;;;14.27;;
12267;SDS011;6196;48.398;11.736;2022-07-22T03:21:47;14.37;;;13.17;;
12267;SDS011;6196;48.398;11.736;2022-07-22T03:24:14;13.70;;;12.47;;
12267;SDS011;6196;48.398;11.736;2022-07-22T03:26:40;15.03;;;13.63;;
12267;SDS011;6196;48.398;11.736;2022-07-22T03:29:08;14.37;;;13.07;;
12267;SDS011;6196;48.398;11.736;2022-07-22T03:31:35;18.73;;;16.97;;
12267;SDS011;6196;48.398;11.736;2022-07-22T03:34:02;17.33;;;15.73;;
12267;SDS011;6196;48.398;11.736;2022-07-22T03:36:29;18.10;;;16.47;;
12267;SDS011;6196;48.398;11.736;2022-07-22T03:38:56;20.87;;;18.97;;
12267;SDS011;6196;48.398;11.736;2022-07-22T03:41:23;20.03;;;18.13;;
12267;SDS011;6196;48.398;11.736;2022-07-22T03:43:50;20.07;;;18.27;;
12267;SDS011;6196;48.398;11.736;2022-07-22T03:46:18;18.47;;;16.73;;
12267;SDS011;6196;48.398;11.736;2022-07-22T03:48:45;18.20;;;16.33;;
12267;SDS011;6196;48.398;11.736;2022-07-22T03:51:12;18.70;;;16.90;;
12267;SDS011;6196;48.398;11.736;2022-07-22T03:53:39;16.23;;;14.73;;
12267;SDS011;6196;48.398;11.736;2022-07-22T03:56:06;16.90;;;15.40;;
12267;SDS011;6196;48.398;11.736;2022-07-22T03:58:33;17.27;;;15.63;;
12267;SDS011;6196;48.398;11.736;2022-07-22T04:01:00;17.40;;;15.80;;
12267;SDS011;6196;48.398;11.736;2022-07-22T04:03:27;15.33;;;13.93;;
12267;SDS011;6196;48.398;11.736;2022-07-22T04:05:54;17.50;;;14.53;;
12267;SDS011;6196;48.398;11.736;2022-07-22T04:08:21;15.97;;;14.47;;
12267;SDS011;6196;48.398;11.736;2022-07-22T04:10:48;14.90;;;13.37;;
12267;SDS011;6196;48.398;11.736;2022-07-22T04:13:15;14.60;;;13.30;;
12267;SDS011;6196;48.398;11.736;2022-07-22T04:15:41;14.60;;;13.17;;
12267;SDS011;6196;48.398;11.736;2022-07-22T04:18:08;14.53;;;13.13;;
12267;SDS011;6196;48.398;11.736;2022-07-22T04:20:35;15.23;;;13.57;;
12267;SDS011;6196;48.398;11.736;2022-07-22T04:23:02;18.13;;;16.33;;
12267;SDS011;6196;48.398;11.736;2022-07-22T04:25:29;20.47;;;18.57;;
12267;SDS011;6196;48.398;11.736;2022-07-22T04:27:56;19.73;;;17.93;;
12267;SDS011;6196;48.398;11.736;2022-07-22T04:30:23;19.90;;;18.10;;
12267;SDS011;6196;48.398;11.736;2022-07-22T04:32:50;17.77;;;16.17;;
12267;SDS011;6196;48.398;11.736;2022-07-22T04:35:17;18.47;;;16.67;;
12267;SDS011;6196;48.398;11.736;2022-07-22T04:37:43;18.30;;;16.70;;
12267;SDS011;6196;48.398;11.736;2022-07-22T04:40:11;16.43;;;14.83;;
12267;SDS011;6196;48.398;11.736;2022-07-22T04:42:38;15.87;;;14.37;;
12267;SDS011;6196;48.398;11.736;2022-07-22T04:45:05;15.53;;;14.10;;
12267;SDS011;6196;48.398;11.736;2022-07-22T04:47:32;16.13;;;14.63;;
12267;SDS011;6196;48.398;11.736;2022-07-22T04:49:59;15.30;;;14.00;;
12267;SDS011;6196;48.398;11.736;2022-07-22T04:52:26;15.00;;;13.70;;
12267;SDS011;6196;48.398;11.736;2022-07-22T04:54:53;14.20;;;13.00;;
12267;SDS011;6196;48.398;11.736;2022-07-22T04:57:20;14.77;;;13.47;;
12267;SDS011;6196;48.398;11.736;2022-07-22T04:59:47;15.57;;;14.17;;
12267;SDS011;6196;48.398;11.736;2022-07-22T05:02:14;14.97;;;12.67;;
12267;SDS011;6196;48.398;11.736;2022-07-22T05:04:41;14.07;;;12.60;;
12267;SDS011;6196;48.398;11.736;2022-07-22T05:07:08;13.37;;;12.17;;
12267;SDS011;6196;48.398;11.736;2022-07-22T05:09:35;15.17;;;13.73;;
12267;SDS011;6196;48.398;11.736;2022-07-22T05:12:02;12.60;;;11.40;;
12267;SDS011;6196;48.398;11.736;2022-07-22T05:14:30;12.43;;;11.37;;
12267;SDS011;6196;48.398;11.736;2022-07-22T05:16:57;12.23;;;10.90;;
12267;SDS011;6196;48.398;11.736;2022-07-22T05:19:24;13.00;;;11.80;;
12267;SDS011;6196;48.398;11.736;2022-07-22T05:21:51;13.70;;;12.60;;
12267;SDS011;6196;48.398;11.736;2022-07-22T05:24:18;15.60;;;14.20;;
12267;SDS011;6196;48.398;11.736;2022-07-22T05:26:45;17.07;;;15.47;;
12267;SDS011;6196;48.398;11.736;2022-07-22T05:29:12;19.60;;;17.70;;
12267;SDS011;6196;48.398;11.736;2022-07-22T05:31:38;19.30;;;17.40;;
12267;SDS011;6196;48.398;11.736;2022-07-22T05:34:06;19.50;;;17.70;;
12267;SDS011;6196;48.398;11.736;2022-07-22T05:36:33;18.50;;;16.83;;
12267;SDS011;6196;48.398;11.736;2022-07-22T05:39:01;22.47;;;20.47;;
12267;SDS011;6196;48.398;11.736;2022-07-22T05:41:28;21.30;;;19.43;;
12267;SDS011;6196;48.398;11.736;2022-07-22T05:43:55;22.10;;;19.90;;
12267;SDS011;6196;48.398;11.736;2022-07-22T05:46:22;22.50;;;20.37;;
12267;SDS011;6196;48.398;11.736;2022-07-22T05:48:49;23.37;;;21.27;;
12267;SDS011;6196;48.398;11.736;2022-07-22T05:51:16;21.40;;;19.30;;
12267;SDS011;6196;48.398;11.736;2022-07-22T05:53:43;22.17;;;20.27;;
12267;SDS011;6196;48.398;11.736;2022-07-22T05:56:10;25.83;;;23.07;;
12267;SDS011;6196;48.398;11.736;2022-07-22T05:58:38;23.67;;;21.57;;
12267;SDS011;6196;48.398;11.736;2022-07-22T06:01:06;23.20;;;21.10;;
12267;SDS011;6196;48.398;11.736;2022-07-22T06:03:33;24.77;;;22.23;;
12267;SDS011;6196;48.398;11.736;2022-07-22T06:06:00;25.03;;;22.80;;
12267;SDS011;6196;48.398;11.736;2022-07-22T06:08:28;26.53;;;23.67;;
12267;SDS011;6196;48.398;11.736;2022-07-22T06:10:56;24.93;;;22.63;;
12267;SDS011;6196;48.398;11.736;2022-07-22T06:13:23;23.87;;;21.47;;
12267;SDS011;6196;48.398;11.736;2022-07-22T06:15:51;23.83;;;21.47;;
12267;SDS011;6196;48.398;11.736;2022-07-22T06:18:18;22.37;;;20.37;;
12267;SDS011;6196;48.398;11.736;2022-07-22T06:20:45;23.53;;;21.33;;
12267;SDS011;6196;48.398;11.736;2022-07-22T06:23:12;21.73;;;19.73;;
12267;SDS011;6196;48.398;11.736;2022-07-22T06:25:39;23.00;;;20.70;;
12267;SDS011;6196;48.398;11.736;2022-07-22T06:28:09;21.77;;;19.77;;
12267;SDS011;6196;48.398;11.736;2022-07-22T06:30:37;22.43;;;20.33;;
12267;SDS011;6196;48.398;11.736;2022-07-22T06:33:05;22.30;;;20.10;;
12267;SDS011;6196;48.398;11.736;2022-07-22T06:35:32;23.90;;;21.60;;
12267;SDS011;6196;48.398;11.736;2022-07-22T06:37:59;22.07;;;20.17;;
12267;SDS011;6196;48.398;11.736;2022-07-22T06:40:32;22.63;;;20.53;;
12267;SDS011;6196;48.398;11.736;2022-07-22T06:43:00;25.30;;;22.53;;
12267;SDS011;6196;48.398;11.736;2022-07-22T06:45:29;22.17;;;20.07;;
12267;SDS011;6196;48.398;11.736;2022-07-22T06:47:56;22.97;;;20.87;;
12267;SDS011;6196;48.398;11.736;2022-07-22T06:50:24;22.73;;;20.63;;
12267;SDS011;6196;48.398;11.736;2022-07-22T06:52:52;24.27;;;21.83;;
12267;SDS011;6196;48.398;11.736;2022-07-22T06:55:20;21.70;;;19.50;;
12267;SDS011;6196;48.398;11.736;2022-07-22T06:57:47;23.20;;;21.07;;
12267;SDS011;6196;48.398;11.736;2022-07-22T07:00:14;20.87;;;18.97;;
12267;SDS011;6196;48.398;11.736;2022-07-22T07:02:43;22.43;;;20.40;;
12267;SDS011;6196;48.398;11.736;2022-07-22T07:05:10;20.73;;;18.90;;
12267;SDS011;6196;48.398;11.736;2022-07-22T07:07:45;21.40;;;19.33;;
12267;SDS011;6196;48.398;11.736;2022-07-22T07:10:13;21.43;;;19.33;;
12267;SDS011;6196;48.398;11.736;2022-07-22T07:12:42;21.00;;;18.83;;
12267;SDS011;6196;48.398;11.736;2022-07-22T07:15:09;21.20;;;19.20;;
12267;SDS011;6196;48.398;11.736;2022-07-22T07:17:50;19.90;;;18.10;;
12267;SDS011;6196;48.398;11.736;2022-07-22T07:20:19;21.63;;;18.70;;
12267;SDS011;6196;48.398;11.736;2022-07-22T07:22:46;19.77;;;17.77;;
12267;SDS011;6196;48.398;11.736;2022-07-22T07:25:14;19.57;;;17.77;;
12267;SDS011;6196;48.398;11.736;2022-07-22T07:27:49;20.83;;;18.93;;
12267;SDS011;6196;48.398;11.736;2022-07-22T07:30:19;18.33;;;16.43;;
12267;SDS011;6196;48.398;11.736;2022-07-22T07:32:47;16.10;;;14.50;;
12267;SDS011;6196;48.398;11.736;2022-07-22T07:35:14;18.07;;;16.33;;
12267;SDS011;6196;48.398;11.736;2022-07-22T07:37:41;18.00;;;16.20;;
12267;SDS011;6196;48.398;11.736;2022-07-22T07:40:08;15.60;;;14.10;;
12267;SDS011;6196;48.398;11.736;2022-07-22T07:42:36;15.40;;;14.00;;
12267;SDS011;6196;48.398;11.736;2022-07-22T07:45:11;15.80;;;13.93;;
12267;SDS011;6196;48.398;11.736;2022-07-22T07:47:38;14.53;;;13.23;;
12267;SDS011;6196;48.398;11.736;2022-07-22T07:50:05;14.17;;;12.77;;
12267;SDS011;6196;48.398;11.736;2022-07-22T07:52:37;15.13;;;13.53;;
12267;SDS011;6196;48.398;11.736;2022-07-22T07:55:17;15.17;;;13.87;;
12267;SDS011;6196;48.398;11.736;2022-07-22T07:57:46;14.37;;;13.07;;
12267;SDS011;6196;48.398;11.736;2022-07-22T08:00:17;14.37;;;12.97;;
12267;SDS011;6196;48.398;11.736;2022-07-22T08:02:48;13.83;;;12.50;;
12267;SDS011;6196;48.398;11.736;2022-07-22T08:05:16;13.77;;;12.48;;
12267;SDS011;6196;48.398;11.736;2022-07-22T08:07:45;11.90;;;10.65;;
12267;SDS011;6196;48.398;11.736;2022-07-22T08:10:12;11.93;;;10.90;;
12267;SDS011;6196;48.398;11.736;2022-07-22T08:12:59;12.07;;;10.02;;
12267;SDS011;6196;48.398;11.736;2022-07-22T08:15:27;11.23;;;10.05;;
12267;SDS011;6196;48.398;11.736;2022-07-22T08:17:55;11.07;;;10.10;;
12267;SDS011;6196;48.398;11.736;2022-07-22T08:20:23;10.77;;;9.68;;
12267;SDS011;6196;48.398;11.736;2022-07-22T08:22:52;12.93;;;11.65;;
12267;SDS011;6196;48.398;11.736;2022-07-22T08:25:19;10.73;;;9.65;;
12267;SDS011;6196;48.398;11.736;2022-07-22T08:27:47;10.85;;;9.55;;
12267;SDS011;6196;48.398;11.736;2022-07-22T08:30:15;9.75;;;8.77;;
12267;SDS011;6196;48.398;11.736;2022-07-22T08:32:43;9.98;;;8.98;;
12267;SDS011;6196;48.398;11.736;2022-07-22T08:35:10;10.65;;;9.27;;
12267;SDS011;6196;48.398;11.736;2022-07-22T08:37:37;13.38;;;9.45;;
12267;SDS011;6196;48.398;11.736;2022-07-22T08:40:05;12.43;;;9.95;;
12267;SDS011;6196;48.398;11.736;2022-07-22T08:42:38;10.07;;;9.20;;
12267;SDS011;6196;48.398;11.736;2022-07-22T08:45:08;11.75;;;9.27;;
12267;SDS011;6196;48.398;11.736;2022-07-22T08:47:51;11.77;;;9.10;;
12267;SDS011;6196;48.398;11.736;2022-07-22T08:50:20;13.27;;;10.73;;
12267;SDS011;6196;48.398;11.736;2022-07-22T08:52:48;12.57;;;10.27;;
12267;SDS011;6196;48.398;11.736;2022-07-22T08:55:15;11.90;;;10.82;;
12267;SDS011;6196;48.398;11.736;2022-07-22T08:57:46;11.85;;;10.65;;
12267;SDS011;6196;48.398;11.736;2022-07-22T09:00:18;11.95;;;10.15;;
12267;SDS011;6196;48.398;11.736;2022-07-22T09:02:47;11.35;;;10.18;;
12267;SDS011;6196;48.398;11.736;2022-07-22T09:05:15;10.93;;;9.73;;
12267;SDS011;6196;48.398;11.736;2022-07-22T09:08:03;10.68;;;9.52;;
12267;SDS011;6196;48.398;11.736;2022-07-22T09:10:31;10.48;;;9.50;;
12267;SDS011;6196;48.398;11.736;2022-07-22T09:13:01;10.43;;;9.20;;
12267;SDS011;6196;48.398;11.736;2022-07-22T09:15:36;10.65;;;9.57;;
12267;SDS011;6196;48.398;11.736;2022-07-22T09:18:12;10.05;;;9.00;;
12267;SDS011;6196;48.398;11.736;2022-07-22T09:20:39;10.70;;;9.60;;
12267;SDS011;6196;48.398;11.736;2022-07-22T09:23:16;10.85;;;9.75;;
12267;SDS011;6196;48.398;11.736;2022-07-22T09:25:48;11.90;;;9.63;;
12267;SDS011;6196;48.398;11.736;2022-07-22T09:28:20;11.68;;;9.65;;
12267;SDS011;6196;48.398;11.736;2022-07-22T09:30:51;10.15;;;9.15;;
12267;SDS011;6196;48.398;11.736;2022-07-22T09:33:22;9.95;;;8.98;;
12267;SDS011;6196;48.398;11.736;2022-07-22T09:35:50;9.43;;;8.52;;
12267;SDS011;6196;48.398;11.736;2022-07-22T09:38:19;10.32;;;9.23;;
12267;SDS011;6196;48.398;11.736;2022-07-22T09:40:59;10.27;;;9.38;;
12267;SDS011;6196;48.398;11.736;2022-07-22T09:43:26;10.25;;;9.27;;
12267;SDS011;6196;48.398;11.736;2022-07-22T09:45:59;9.88;;;7.68;;
12267;SDS011;6196;48.398;11.736;2022-07-22T09:48:26;9.00;;;8.20;;
12267;SDS011;6196;48.398;11.736;2022-07-22T09:50:55;8.68;;;7.78;;
12267;SDS011;6196;48.398;11.736;2022-07-22T09:53:24;9.15;;;8.25;;
12267;SDS011;6196;48.398;11.736;2022-07-22T09:55:55;9.48;;;8.57;;
12267;SDS011;6196;48.398;11.736;2022-07-22T09:58:24;9.55;;;8.75;;
12267;SDS011;6196;48.398;11.736;2022-07-22T10:00:53;9.60;;;8.52;;
12267;SDS011;6196;48.398;11.736;2022-07-22T10:03:25;9.10;;;8.30;;
12267;SDS011;6196;48.398;11.736;2022-07-22T10:05:55;8.85;;;7.97;;
12267;SDS011;6196;48.398;11.736;2022-07-22T10:08:27;11.45;;;8.10;;
12267;SDS011;6196;48.398;11.736;2022-07-22T10:10:58;10.05;;;8.25;;
12267;SDS011;6196;48.398;11.736;2022-07-22T10:13:29;11.98;;;8.20;;
12267;SDS011;6196;48.398;11.736;2022-07-22T10:15:57;8.18;;;7.38;;
12267;SDS011;6196;48.398;11.736;2022-07-22T10:18:26;8.57;;;7.78;;
12267;SDS011;6196;48.398;11.736;2022-07-22T10:21:02;9.68;;;7.93;;
12267;SDS011;6196;48.398;11.736;2022-07-22T10:23:36;9.18;;;7.68;;
12267;SDS011;6196;48.398;11.736;2022-07-22T10:26:03;9.20;;;8.25;;
12267;SDS011;6196;48.398;11.736;2022-07-22T10:28:32;7.70;;;7.00;;
12267;SDS011;6196;48.398;11.736;2022-07-22T10:34:03;7.63;;;7.03;;
12267;SDS011;6196;48.398;11.736;2022-07-22T10:39:12;8.73;;;7.80;;
12267;SDS011;6196;48.398;11.736;2022-07-22T10:41:41;8.68;;;7.78;;
12267;SDS011;6196;48.398;11.736;2022-07-22T10:44:51;8.45;;;7.63;;
12267;SDS011;6196;48.398;11.736;2022-07-22T10:53:03;7.85;;;6.00;;
12267;SDS011;6196;48.398;11.736;2022-07-22T10:55:32;5.53;;;5.10;;
12267;SDS011;6196;48.398;11.736;2022-07-22T10:58:00;6.10;;;5.60;;
12267;SDS011;6196;48.398;11.736;2022-07-22T11:01:08;7.65;;;6.85;;
12267;SDS011;6196;48.398;11.736;2022-07-22T11:03:39;6.63;;;5.70;;
12267;SDS011;6196;48.398;11.736;2022-07-22T11:08:41;6.60;;;6.00;;
12267;SDS011;6196;48.398;11.736;2022-07-22T11:11:10;7.90;;;7.10;;
12267;SDS011;6196;48.398;11.736;2022-07-22T11:13:39;7.13;;;6.35;;
12267;SDS011;6196;48.398;11.736;2022-07-22T11:16:18;7.45;;;6.47;;
12267;SDS011;6196;48.398;11.736;2022-07-22T11:21:29;7.47;;;6.70;;
12267;SDS011;6196;48.398;11.736;2022-07-22T11:24:05;6.60;;;6.00;;
12267;SDS011;6196;48.398;11.736;2022-07-22T11:26:52;7.10;;;6.50;;
12267;SDS011;6196;48.398;11.736;2022-07-22T11:29:35;7.03;;;6.40;;
12267;SDS011;6196;48.398;11.736;2022-07-22T11:32:07;7.22;;;6.45;;
12267;SDS011;6196;48.398;11.736;2022-07-22T11:34:36;7.35;;;6.25;;
12267;SDS011;6196;48.398;11.736;2022-07-22T11:37:08;6.40;;;5.80;;
12267;SDS011;6196;48.398;11.736;2022-07-22T11:39:35;6.55;;;5.93;;
12267;SDS011;6196;48.398;11.736;2022-07-22T11:42:03;6.53;;;5.93;;
12267;SDS011;6196;48.398;11.736;2022-07-22T11:44:31;7.50;;;6.28;;
12267;SDS011;6196;48.398;11.736;2022-07-22T11:47:02;7.05;;;6.45;;
12267;SDS011;6196;48.398;11.736;2022-07-22T11:49:31;7.35;;;6.28;;
12267;SDS011;6196;48.398;11.736;2022-07-22T11:52:00;6.57;;;5.97;;
12267;SDS011;6196;48.398;11.736;2022-07-22T11:54:39;6.57;;;5.95;;
12267;SDS011;6196;48.398;11.736;2022-07-22T11:57:09;7.10;;;6.50;;
12267;SDS011;6196;48.398;11.736;2022-07-22T11:59:38;7.28;;;6.57;;
12267;SDS011;6196;48.398;11.736;2022-07-22T12:02:05;7.20;;;6.47;;
12267;SDS011;6196;48.398;11.736;2022-07-22T12:04:35;7.60;;;6.70;;
12267;SDS011;6196;48.398;11.736;2022-07-22T12:07:04;6.75;;;6.22;;
12267;SDS011;6196;48.398;11.736;2022-07-22T12:09:33;7.47;;;6.85;;
12267;SDS011;6196;48.398;11.736;2022-07-22T12:12:03;6.70;;;5.78;;
12267;SDS011;6196;48.398;11.736;2022-07-22T12:14:31;7.97;;;6.75;;
12267;SDS011;6196;48.398;11.736;2022-07-22T12:17:04;7.10;;;6.43;;
12267;SDS011;6196;48.398;11.736;2022-07-22T12:19:36;7.45;;;6.70;;
12267;SDS011;6196;48.398;11.736;2022-07-22T12:22:08;7.40;;;6.20;;
12267;SDS011;6196;48.398;11.736;2022-07-22T12:24:41;7.28;;;6.57;;
12267;SDS011;6196;48.398;11.736;2022-07-22T12:27:23;9.43;;;6.85;;
12267;SDS011;6196;48.398;11.736;2022-07-22T12:29:49;8.50;;;7.03;;
12267;SDS011;6196;48.398;11.736;2022-07-22T12:34:57;7.88;;;7.07;;
12267;SDS011;6196;48.398;11.736;2022-07-22T12:40:10;7.93;;;7.28;;
12267;SDS011;6196;48.398;11.736;2022-07-22T12:43:01;8.32;;;6.90;;
12267;SDS011;6196;48.398;11.736;2022-07-22T12:45:33;7.40;;;6.70;;
12267;SDS011;6196;48.398;11.736;2022-07-22T12:50:35;7.68;;;6.97;;
12267;SDS011;6196;48.398;11.736;2022-07-22T12:53:13;8.60;;;7.07;;
12267;SDS011;6196;48.398;11.736;2022-07-22T12:55:54;8.10;;;7.40;;
12267;SDS011;6196;48.398;11.736;2022-07-22T12:58:28;8.77;;;7.38;;
12267;SDS011;6196;48.398;11.736;2022-07-22T13:00:58;7.15;;;6.50;;
12267;SDS011;6196;48.398;11.736;2022-07-22T13:03:27;7.65;;;6.93;;
12267;SDS011;6196;48.398;11.736;2022-07-22T13:05:57;7.57;;;6.97;;
12267;SDS011;6196;48.398;11.736;2022-07-22T13:08:34;8.98;;;7.47;;
12267;SDS011;6196;48.398;11.736;2022-07-22T13:11:11;7.60;;;6.90;;
12267;SDS011;6196;48.398;11.736;2022-07-22T13:13:40;7.28;;;6.55;;
12267;SDS011;6196;48.398;11.736;2022-07-22T13:16:09;7.40;;;6.80;;
12267;SDS011;6196;48.398;11.736;2022-07-22T13:18:37;7.75;;;6.93;;
12267;SDS011;6196;48.398;11.736;2022-07-22T13:21:04;7.95;;;6.97;;
12267;SDS011;6196;48.398;11.736;2022-07-22T13:23:31;6.90;;;6.30;;
12267;SDS011;6196;48.398;11.736;2022-07-22T13:25:58;7.85;;;7.05;;
12267;SDS011;6196;48.398;11.736;2022-07-22T13:28:25;6.60;;;6.00;;
12267;SDS011;6196;48.398;11.736;2022-07-22T13:30:51;7.72;;;6.47;;
12267;SDS011;6196;48.398;11.736;2022-07-22T13:33:19;7.15;;;6.57;;
12267;SDS011;6196;48.398;11.736;2022-07-22T13:35:45;7.47;;;6.88;;
12267;SDS011;6196;48.398;11.736;2022-07-22T13:38:12;7.32;;;6.72;;
12267;SDS011;6196;48.398;11.736;2022-07-22T13:40:43;7.25;;;6.43;;
12267;SDS011;6196;48.398;11.736;2022-07-22T13:43:20;7.57;;;6.72;;
12267;SDS011;6196;48.398;11.736;2022-07-22T13:45:49;7.57;;;6.00;;
12267;SDS011;6196;48.398;11.736;2022-07-22T13:48:18;6.68;;;6.18;;
12267;SDS011;6196;48.398;11.736;2022-07-22T13:50:46;7.97;;;7.00;;
12267;SDS011;6196;48.398;11.736;2022-07-22T13:53:13;7.90;;;7.00;;
12267;SDS011;6196;48.398;11.736;2022-07-22T13:55:40;7.10;;;6.47;;
12267;SDS011;6196;48.398;11.736;2022-07-22T13:58:07;6.95;;;6.35;;
12267;SDS011;6196;48.398;11.736;2022-07-22T14:00:35;6.97;;;6.38;;
12267;SDS011;6196;48.398;11.736;2022-07-22T14:03:02;7.72;;;6.97;;
12267;SDS011;6196;48.398;11.736;2022-07-22T14:05:31;7.90;;;7.20;;
12267;SDS011;6196;48.398;11.736;2022-07-22T14:07:58;7.00;;;6.47;;
12267;SDS011;6196;48.398;11.736;2022-07-22T14:10:25;7.18;;;6.45;;
12267;SDS011;6196;48.398;11.736;2022-07-22T14:12:52;7.97;;;6.78;;
12267;SDS011;6196;48.398;11.736;2022-07-22T14:15:19;8.15;;;6.55;;
12267;SDS011;6196;48.398;11.736;2022-07-22T14:17:46;8.32;;;7.13;;
12267;SDS011;6196;48.398;11.736;2022-07-22T14:20:14;7.70;;;6.93;;
12267;SDS011;6196;48.398;11.736;2022-07-22T14:22:40;6.82;;;6.22;;
12267;SDS011;6196;48.398;11.736;2022-07-22T14:25:08;7.40;;;6.57;;
12267;SDS011;6196;48.398;11.736;2022-07-22T14:27:35;9.60;;;6.57;;
12267;SDS011;6196;48.398;11.736;2022-07-22T14:30:02;7.07;;;6.38;;
12267;SDS011;6196;48.398;11.736;2022-07-22T14:32:30;8.07;;;7.28;;
12267;SDS011;6196;48.398;11.736;2022-07-22T14:34:57;7.80;;;7.10;;
12267;SDS011;6196;48.398;11.736;2022-07-22T14:37:24;7.22;;;6.70;;
12267;SDS011;6196;48.398;11.736;2022-07-22T14:39:52;8.70;;;6.85;;
12267;SDS011;6196;48.398;11.736;2022-07-22T14:42:20;7.82;;;6.68;;
12267;SDS011;6196;48.398;11.736;2022-07-22T14:44:47;7.55;;;6.72;;
12267;SDS011;6196;48.398;11.736;2022-07-22T14:47:14;8.43;;;6.47;;
12267;SDS011;6196;48.398;11.736;2022-07-22T14:49:41;7.82;;;6.78;;
12267;SDS011;6196;48.398;11.736;2022-07-22T14:52:08;7.45;;;6.70;;
12267;SDS011;6196;48.398;11.736;2022-07-22T14:54:35;8.82;;;7.43;;
12267;SDS011;6196;48.398;11.736;2022-07-22T14:57:01;7.55;;;6.28;;
12267;SDS011;6196;48.398;11.736;2022-07-22T14:59:28;7.72;;;7.03;;
12267;SDS011;6196;48.398;11.736;2022-07-22T15:01:55;7.25;;;6.55;;
12267;SDS011;6196;48.398;11.736;2022-07-22T15:04:23;8.82;;;6.93;;